Data for 06/12/2010

Time Sea-Level Adjusted Pressure Absolute Pressure Temperature Relative Humidity Dew Point   
(mb) (inHg) (mb) (inHg) (C) (F) (%) (C) (F)
00:05 1027 30.33 856 25.28 6.3 43.4 73 1.9 35.4
00:10 1027 30.33 856 25.28 6.5 43.7 74 2.1 35.9
00:15 1027 30.33 856 25.28 6.4 43.5 77 2.6 36.6
00:20 1027 30.33 856 25.28 6.4 43.6 73 2 35.6
00:25 1027 30.33 856 25.28 6.7 44 77 2.9 37.2
00:30 1027 30.33 856 25.28 6.1 43 80 3 37.3
00:35 1027 30.33 856 25.28 5.8 42.4 83 3 37.5
00:40 1027 30.33 856 25.28 5.8 42.4 81 2.7 36.9
00:45 1027 30.33 856 25.28 6.1 42.9 80 2.9 37.2
00:50 1027 30.33 856 25.28 5.8 42.5 80 2.6 36.8
00:55 1027 30.33 856 25.28 5.7 42.3 79 2.4 36.4
01:00 1027 30.33 856 25.28 5.7 42.3 81 2.8 37
01:05 1027 30.33 856 25.28 5.5 41.8 80 2.4 36.2
01:10 1027 30.33 856 25.28 5.6 42.2 80 2.4 36.3
01:15 1027 30.33 856 25.28 5.6 42 80 2.4 36.3
01:20 1027 30.33 856 25.28 5.7 42.2 80 2.5 36.4
01:25 1027 30.33 856 25.28 5.7 42.3 80 2.5 36.5
01:30 1027 30.33 856 25.28 5.7 42.3 79 2.4 36.3
01:35 1027 30.33 856 25.28 5.9 42.6 78 2.3 36.2
01:40 1027 30.33 856 25.28 5.9 42.7 78 2.3 36.2
01:45 1027 30.33 856 25.28 6 42.7 79 2.6 36.7
01:50 1027 30.33 856 25.28 6 42.8 77 2.3 36.2
01:55 1027 30.33 856 25.28 6.2 43.1 76 2.3 36.1
02:00 1027 30.33 856 25.28 6.2 43.1 77 2.5 36.5
02:05 1027 30.33 856 25.28 6 42.8 78 2.5 36.4
02:10 1027 30.33 856 25.28 5.9 42.6 78 2.4 36.3
02:15 1027 30.33 856 25.28 5.8 42.5 77 2.2 35.9
02:20 1027 30.33 856 25.28 5.8 42.4 77 2 35.6
02:25 1027 30.33 856 25.28 5.8 42.4 78 2.2 35.9
02:30 1027 30.33 856 25.28 5.8 42.5 77 2.1 35.7
02:35 1027 30.33 856 25.28 5.9 42.7 75 1.9 35.4
02:40 1027 30.33 856 25.28 6 42.8 77 2.2 36
02:45 1027 30.33 856 25.28 5.9 42.6 78 2.4 36.4
02:50 1027 30.33 856 25.28 5.8 42.4 79 2.4 36.3
02:55 1027 30.33 856 25.28 5.8 42.5 77 2.1 35.8
03:00 1027 30.33 856 25.28 5.9 42.7 77 2.2 36
03:05 1027 30.33 856 25.28 6.1 42.9 75 2 35.6
03:10 1027 30.33 856 25.28 6.2 43.2 75 2.1 35.8
03:15 1027 30.33 856 25.28 6.2 43.2 76 2.3 36.2
03:20 1027 30.33 856 25.28 6.1 42.9 78 2.5 36.5
03:25 1027 30.33 856 25.28 6 42.8 76 2.2 35.9
03:30 1027 30.33 856 25.28 6.1 43 75 2 35.5
03:35 1027 30.33 856 25.28 6.2 43.1 76 2.3 36.2
03:40 1027 30.33 856 25.28 6.2 43.2 74 2 35.6
03:45 1027 30.33 856 25.28 6.2 43.2 75 2.2 36
03:50 1027 30.33 856 25.28 6.3 43.3 75 2.1 35.8
03:55 1027 30.33 856 25.28 6.4 43.4 76 2.4 36.4
04:00 1027 30.33 856 25.28 6.3 43.3 76 2.3 36.2
04:05 1027 30.33 856 25.28 6.3 43.3 77 2.6 36.7
04:10 1027 30.33 856 25.28 6.2 43.2 78 2.6 36.7
04:15 1027 30.33 856 25.28 6.2 43.1 73 1.8 35.2
04:20 1027 30.33 856 25.28 6.4 43.5 73 1.9 35.5
04:25 1027 30.33 856 25.28 6.4 43.6 77 2.6 36.8
04:30 1027 30.33 856 25.28 6.3 43.3 78 2.7 36.9
04:35 1027 30.33 856 25.28 6.1 42.9 78 2.5 36.6
04:40 1027 30.33 856 25.28 6.1 43 77 2.3 36.2
04:45 1027 30.33 856 25.28 6 42.9 80 2.9 37.3
04:50 1027 30.33 856 25.28 5.9 42.6 77 2.2 35.9
04:55 1027 30.33 856 25.28 5.9 42.7 78 2.3 36.2
05:00 1027 30.33 856 25.28 5.9 42.6 76 2 35.7
05:05 1027 30.33 856 25.28 5.9 42.6 74 1.6 34.8
05:10 1027 30.33 856 25.28 6 42.8 76 2 35.7
05:15 1027 30.33 856 25.28 6 42.8 76 2.1 35.9
05:20 1027 30.33 856 25.28 5.8 42.4 80 2.7 36.8
05:25 1027 30.33 856 25.28 5.6 42.1 81 2.6 36.6
05:30 1027 30.33 856 25.28 5.5 41.9 83 2.9 37.2
05:35 1027 30.33 856 25.28 5.4 41.7 84 2.8 37.1
05:40 1027 30.33 856 25.28 5.4 41.6 83 2.7 36.9
05:45 1027 30.33 856 25.28 5.5 41.9 82 2.7 36.8
05:50 1027 30.33 856 25.28 5.5 41.9 80 2.3 36.2
05:55 1027 30.33 856 25.28 5.5 42 78 2.1 35.8
06:00 1027 30.33 856 25.28 5.6 42.1 78 2.1 35.8
06:05 1027 30.33 857 25.31 5.7 42.2 79 2.4 36.2
06:10 1027 30.33 856 25.28 5.7 42.3 78 2.2 35.9
06:15 1027 30.33 856 25.28 5.7 42.3 77 2.1 35.8
06:20 1027 30.33 856 25.28 5.7 42.3 78 2.3 36.1
06:25 1027 30.33 856 25.28 5.6 42.1 79 2.3 36.2
06:30 1027 30.33 856 25.28 5.7 42.2 79 2.3 36.1
06:35 1027 30.33 856 25.28 5.7 42.3 80 2.5 36.5
06:40 1027 30.33 856 25.28 5.6 42.2 81 2.7 36.8
06:45 1027 30.33 856 25.28 5.6 42.2 82 2.8 37.1
06:50 1027 30.33 856 25.28 5.7 42.3 82 2.9 37.2
06:55 1027 30.33 856 25.28 5.8 42.4 81 2.8 37.1
07:00 1027 30.33 857 25.31 5.8 42.4 78 2.3 36.2
07:05 1027 30.33 857 25.31 5.7 42.3 76 1.9 35.4
07:10 1027 30.33 857 25.31 5.8 42.4 78 2.3 36.1
07:15 1027 30.33 856 25.28 6.2 43.2 77 2.5 36.4
07:20 1027 30.33 856 25.28 6.9 44.3 72 2.3 36.1
07:25 1027 30.33 856 25.28 6.8 44.2 75 2.7 36.8
07:30 1027 30.33 856 25.28 6.8 44.2 75 2.7 36.9
07:35 1027 30.33 856 25.28 6.5 43.8 74 2.2 35.9
07:40 1027 30.33 856 25.28 6.3 43.4 72 1.6 35
07:45 1027 30.33 856 25.28 6.2 43.2 74 2 35.5
07:50 1027 30.33 856 25.28 6.3 43.4 73 1.8 35.3
07:55 1027 30.33 856 25.28 6.5 43.7 75 2.5 36.4
08:00 1027 30.33 856 25.28 6.6 43.9 75 2.6 36.6
08:05 1027 30.33 856 25.28 6.6 43.9 75 2.5 36.5
08:10 1027 30.33 856 25.28 6.7 44 74 2.5 36.5
08:15 1027 30.33 856 25.28 7.1 44.7 73 2.6 36.7
08:20 1027 30.33 856 25.28 7.2 45 75 3.1 37.7
08:25 1027 30.33 856 25.28 7.4 45.4 73 3 37.3
08:30 1027 30.33 856 25.28 7.6 45.7 73 3.2 37.7
08:35 1027 30.33 857 25.31 7.7 45.9 71 2.8 37.1
08:40 1027 30.33 857 25.31 7.4 45.4 73 3 37.3
08:45 1027 30.33 857 25.31 7.6 45.8 71 2.7 36.9
08:50 1027 30.33 856 25.28 7.9 46.1 68 2.4 36.2
08:55 1027 30.33 857 25.31 7.8 46 71 2.8 37.1
09:00 1027 30.33 857 25.31 7.7 45.8 73 3.2 37.7
09:05 1027 30.33 857 25.31 7.3 45.1 76 3.2 37.8
09:10 1027 30.33 857 25.31 7.1 44.7 75 3 37.4
09:15 1027 30.33 857 25.31 7.3 45.2 70 2.2 36
09:20 1027 30.33 856 25.28 7.9 46.1 68 2.4 36.3
09:25 1027 30.33 856 25.28 7.8 46 68 2.3 36.1
09:30 1027 30.33 856 25.28 7.9 46.1 68 2.3 36.1
09:35 1027 30.33 856 25.28 7.9 46.2 68 2.4 36.4
09:40 1027 30.33 857 25.31 8 46.3 68 2.5 36.4
09:45 1027 30.33 857 25.31 7.5 45.5 71 2.7 36.9
09:50 1027 30.33 856 25.28 7.4 45.4 72 2.7 36.9
09:55 1027 30.33 857 25.31 7.4 45.2 72 2.6 36.8
10:00 1027 30.33 856 25.28 7.5 45.4 71 2.5 36.5
10:05 1027 30.33 856 25.28 7.4 45.2 72 2.7 36.9
10:10 1027 30.33 856 25.28 7.4 45.4 72 2.7 36.9
10:15 1027 30.33 856 25.28 7.6 45.7 72 2.9 37.2
10:20 1027 30.33 856 25.28 7.9 46.1 71 3 37.4
10:25 1027 30.33 856 25.28 8.1 46.5 70 2.9 37.2
10:30 1027 30.33 856 25.28 8.4 47 69 3 37.4
10:35 1027 30.33 856 25.28 8.2 46.8 70 3 37.5
10:40 1027 30.33 856 25.28 8.3 46.9 69 2.9 37.2
10:45 1027 30.33 856 25.28 8.4 47.1 68 2.9 37.3
10:50 1027 30.33 856 25.28 8.4 47.2 67 2.6 36.7
10:55 1027 30.33 856 25.28 8.6 47.5 67 2.8 37.1
11:00 1027 30.33 856 25.28 9.4 48.9 63 2.7 36.9
11:05 1027 30.33 856 25.28 9.3 48.8 63 2.6 36.7
11:10 1027 30.33 856 25.28 9.6 49.2 64 3 37.4
11:15 1027 30.33 856 25.28 9.7 49.5 60 2.3 36.1
11:20 1027 30.33 856 25.28 9.9 49.8 61 2.7 36.8
11:25 1027 30.33 856 25.28 10 50 61 2.9 37.3
11:30 1027 30.33 856 25.28 9.7 49.5 60 2.4 36.4
11:35 1027 30.33 856 25.28 9.9 49.9 60 2.6 36.7
11:40 1027 30.33 856 25.28 9.7 49.5 61 2.6 36.7
11:45 1027 30.33 856 25.28 9.4 48.9 62 2.6 36.6
11:50 1027 30.33 856 25.28 9 48.2 64 2.5 36.5
11:55 1027 30.33 856 25.28 8.8 47.8 64 2.3 36.2
12:00 1027 30.33 856 25.28 9 48.2 64 2.6 36.6
12:05 1027 30.33 856 25.28 9.4 48.9 62 2.4 36.4
12:10 1027 30.33 856 25.28 9.6 49.2 61 2.5 36.5
12:15 1027 30.33 856 25.28 9.6 49.3 60 2.3 36.1
12:20 1027 30.33 856 25.28 9.4 48.9 61 2.2 36
12:25 1027 30.33 856 25.28 9.2 48.6 62 2.3 36.2
12:30 1027 30.33 856 25.28 9.4 48.9 62 2.6 36.6
12:35 1027 30.33 856 25.28 9.3 48.7 62 2.5 36.5
12:40 1027 30.33 856 25.28 9.4 48.9 62 2.6 36.6
12:45 1027 30.33 856 25.28 9.7 49.4 61 2.6 36.6
12:50 1027 30.33 856 25.28 9.7 49.5 60 2.4 36.3
12:55 1027 30.33 856 25.28 10.3 50.5 58 2.3 36.1
13:00 1027 30.33 856 25.28 10.6 51 56 2.1 35.8
13:05 1027 30.33 856 25.28 10.5 50.9 56 2.1 35.8
13:10 1027 30.33 856 25.28 10.8 51.4 55 2.2 35.9
13:15 1027 30.33 856 25.28 10.8 51.4 54 1.8 35.3
13:20 1026 30.3 856 25.28 10.6 51.1 54 1.8 35.3
13:25 1027 30.33 856 25.28 10.6 51.1 54 1.8 35.3
13:30 1026 30.3 856 25.28 11 51.8 54 2.1 35.7
13:35 1026 30.3 856 25.28 11.4 52.5 53 2.1 35.8
13:40 1026 30.3 856 25.28 11.3 52.4 51 1.6 34.8
13:45 1026 30.3 856 25.28 11.3 52.3 49 1 33.8
13:50 1026 30.3 855 25.25 11.3 52.3 51 1.5 34.6
13:55 1026 30.3 855 25.25 11.4 52.5 50 1.3 34.3
14:00 1026 30.3 855 25.25 11.4 52.5 50 1.2 34.2
14:05 1026 30.3 855 25.25 11.2 52.1 49 0.8 33.5
14:10 1026 30.3 855 25.25 11.4 52.6 48 1 33.7
14:15 1026 30.3 855 25.25 11.7 53.1 48 1.1 34
14:20 1026 30.3 855 25.25 11.8 53.2 47 0.8 33.5
14:25 1026 30.3 855 25.25 11.7 53 48 1.2 34.1
14:30 1026 30.3 855 25.25 11.6 52.9 47 0.7 33.3
14:35 1026 30.3 855 25.25 11.8 53.3 47 1 33.7
14:40 1026 30.3 855 25.25 11.9 53.4 48 1.2 34.2
14:45 1026 30.3 855 25.25 12 53.6 48 1.5 34.7
14:50 1026 30.3 855 25.25 12.2 54 49 1.8 35.2
14:55 1026 30.3 855 25.25 12.5 54.4 46 1.3 34.4
15:00 1026 30.3 855 25.25 12.1 53.8 48 1.5 34.7
15:05 1026 30.3 855 25.25 12.2 54 45 0.7 33.2
15:10 1026 30.3 855 25.25 12.3 54.2 47 1.6 34.8
15:15 1026 30.3 855 25.25 12.3 54.1 47 1.5 34.7
15:20 1026 30.3 855 25.25 11.9 53.5 49 1.5 34.7
15:25 1026 30.3 855 25.25 11.9 53.5 52 2.5 36.6
15:30 1026 30.3 855 25.25 12 53.6 54 2.9 37.3
15:35 1026 30.3 855 25.25 12.4 54.4 53 3.2 37.7
15:40 1026 30.3 855 25.25 12.6 54.6 51 2.9 37.2
15:45 1026 30.3 855 25.25 12.6 54.7 51 2.8 37
15:50 1026 30.3 855 25.25 12.7 54.8 50 2.5 36.5
15:55 1026 30.3 855 25.25 12.9 55.2 50 2.7 36.9
16:00 1026 30.3 855 25.25 13.1 55.6 48 2.4 36.3
16:05 1026 30.3 855 25.25 13.5 56.3 49 3.1 37.5
16:10 1026 30.3 855 25.25 13.3 55.9 50 3.1 37.7
16:15 1026 30.3 855 25.25 13.2 55.7 49 2.9 37.3
16:20 1026 30.3 855 25.25 13.8 56.9 49 3.3 38
16:25 1026 30.3 855 25.25 13.4 56 49 2.9 37.2
16:30 1026 30.3 855 25.25 12.9 55.2 51 3.2 37.7
16:35 1025 30.27 855 25.25 12.9 55.3 51 3.1 37.6
16:40 1025 30.27 855 25.25 12.5 54.6 51 2.7 36.9
16:45 1025 30.27 855 25.25 12.8 55 51 2.9 37.2
16:50 1025 30.27 855 25.25 13.4 56.2 51 3.5 38.2
16:55 1025 30.27 855 25.25 12.6 54.8 53 3.4 38.2
17:00 1025 30.27 855 25.25 12.3 54.1 55 3.6 38.5
17:05 1025 30.27 855 25.25 12.1 53.8 54 3.2 37.7
17:10 1025 30.27 855 25.25 12.1 53.8 54 3.2 37.7
17:15 1025 30.27 855 25.25 12 53.6 55 3.2 37.8
17:20 1025 30.27 855 25.25 11.7 53.1 56 3.2 37.8
17:25 1025 30.27 855 25.25 11.7 53.1 57 3.5 38.3
17:30 1025 30.27 855 25.25 11.7 53.1 57 3.6 38.4
17:35 1025 30.27 855 25.25 11.7 53 57 3.5 38.3
17:40 1026 30.3 855 25.25 11.6 52.9 57 3.4 38.1
17:45 1025 30.27 855 25.25 11.5 52.7 56 3.2 37.7
17:50 1026 30.3 855 25.25 11.5 52.7 58 3.5 38.3
17:55 1026 30.3 855 25.25 11.5 52.6 57 3.2 37.8
18:00 1026 30.3 855 25.25 11.4 52.6 56 3 37.4
18:05 1026 30.3 855 25.25 11.4 52.4 55 2.8 37
18:10 1026 30.3 855 25.25 11.5 52.8 55 2.9 37.2
18:15 1026 30.3 855 25.25 11.7 53.1 54 2.8 37
18:20 1026 30.3 855 25.25 12 53.7 53 2.7 36.9
18:25 1025 30.27 855 25.25 12 53.6 52 2.5 36.5
18:30 1025 30.27 855 25.25 12.2 53.9 51 2.4 36.3
18:35 1025 30.27 855 25.25 12.1 53.7 54 3.1 37.6
18:40 1025 30.27 855 25.25 12.1 53.7 55 3.3 37.9
18:45 1026 30.3 855 25.25 12 53.5 56 3.4 38.1
18:50 1026 30.3 855 25.25 12 53.5 55 3.2 37.7
18:55 1026 30.3 855 25.25 12 53.6 54 3 37.4
19:00 1025 30.27 855 25.25 11.7 53.1 58 3.8 38.8
19:05 1025 30.27 855 25.25 11.5 52.7 58 3.5 38.3
19:10 1025 30.27 855 25.25 11.5 52.6 56 3.1 37.6
19:15 1026 30.3 855 25.25 11.3 52.3 58 3.3 37.9
19:20 1026 30.3 855 25.25 11 51.7 59 3.3 37.9
19:25 1025 30.27 855 25.25 11.1 51.9 58 3.1 37.6
19:30 1025 30.27 855 25.25 10.8 51.5 59 3.1 37.6
19:35 1026 30.3 855 25.25 10.8 51.4 59 3.2 37.7
19:40 1026 30.3 855 25.25 10.7 51.3 59 3 37.4
19:45 1026 30.3 855 25.25 10.7 51.2 59 3 37.4
19:50 1026 30.3 855 25.25 10.6 51.1 60 3.1 37.6
19:55 1026 30.3 855 25.25 10.5 50.9 60 3.2 37.7
20:00 1026 30.3 855 25.25 10.4 50.8 62 3.4 38.2
20:05 1026 30.3 855 25.25 10.4 50.7 63 3.6 38.5
20:10 1026 30.3 855 25.25 10.3 50.6 63 3.6 38.4
20:15 1026 30.3 855 25.25 10.2 50.4 62 3.4 38.1
20:20 1026 30.3 855 25.25 10.1 50.1 63 3.3 37.9
20:25 1026 30.3 855 25.25 9.9 49.8 63 3.3 37.9
20:30 1026 30.3 855 25.25 9.7 49.5 63 3.1 37.6
20:35 1026 30.3 855 25.25 9.6 49.4 64 3.1 37.6
20:40 1026 30.3 855 25.25 9.6 49.3 64 3.1 37.7
20:45 1026 30.3 855 25.25 9.5 49.2 64 3.1 37.5
20:50 1026 30.3 855 25.25 9.5 49.1 64 3.1 37.7
20:55 1026 30.3 855 25.25 9.4 49 63 2.9 37.2
21:00 1026 30.3 855 25.25 9.4 49 64 2.9 37.2
21:05 1026 30.3 855 25.25 9.4 48.8 64 3 37.5
21:10 1026 30.3 855 25.25 9.2 48.6 65 3.1 37.6
21:15 1026 30.3 855 25.25 9.1 48.4 66 3.1 37.6
21:20 1026 30.3 855 25.25 9.1 48.3 67 3.2 37.8
21:25 1026 30.3 855 25.25 8.9 48.1 66 2.9 37.2
21:30 1026 30.3 855 25.25 8.8 47.9 66 2.9 37.2
21:35 1026 30.3 855 25.25 8.7 47.7 67 2.9 37.3
21:40 1026 30.3 855 25.25 8.6 47.5 66 2.7 36.8
21:45 1026 30.3 855 25.25 8.7 47.7 66 2.7 36.8
21:50 1026 30.3 855 25.25 8.7 47.6 66 2.8 37
21:55 1026 30.3 855 25.25 8.4 47.2 67 2.7 36.8
22:00 1026 30.3 855 25.25 8.4 47.2 67 2.7 36.8
22:05 1026 30.3 855 25.25 8.4 47.1 68 2.8 37.1
22:10 1026 30.3 855 25.25 8.4 47.1 69 3 37.5
22:15 1026 30.3 855 25.25 8.3 46.9 70 3.2 37.8
22:20 1026 30.3 855 25.25 8.3 46.9 70 3.2 37.7
22:25 1026 30.3 855 25.25 8.2 46.8 71 3.3 38
22:30 1026 30.3 855 25.25 8.2 46.8 71 3.3 38
22:35 1026 30.3 855 25.25 8.2 46.7 72 3.4 38.1
22:40 1026 30.3 855 25.25 8.1 46.5 73 3.5 38.4
22:45 1026 30.3 855 25.25 8 46.4 72 3.3 37.9
22:50 1026 30.3 855 25.25 8 46.5 73 3.6 38.5
22:55 1026 30.3 855 25.25 8 46.4 74 3.7 38.6
23:00 1026 30.3 855 25.25 7.9 46.1 75 3.7 38.6
23:05 1026 30.3 855 25.25 7.7 45.9 75 3.6 38.5
23:10 1026 30.3 855 25.25 7.7 45.8 75 3.5 38.3
23:15 1026 30.3 855 25.25 7.7 45.8 75 3.6 38.4
23:20 1026 30.3 855 25.25 7.6 45.7 75 3.5 38.3
23:25 1026 30.3 855 25.25 7.6 45.6 75 3.5 38.2
23:30 1026 30.3 855 25.25 7.6 45.6 75 3.4 38.2
23:35 1026 30.3 855 25.25 7.6 45.6 75 3.3 38
23:40 1026 30.3 855 25.25 7.6 45.7 74 3.2 37.7
23:45 1026 30.3 855 25.25 7.6 45.6 75 3.4 38
23:50 1026 30.3 855 25.25 7.5 45.4 76 3.4 38.2
23:55 1026 30.3 855 25.25 7.3 45.1 78 3.7 38.6
24:00 1026 30.3 855 25.25 7.1 44.7 79 3.6 38.6